CheckWX is a tool to help pilots better visualize weather data.  It is not intended as a substitute for an official pre-flight weather briefing.

20:59:17 UTC

FQCH TAF
Chimoio Airport
Chimoio, Mozambique
TAF FQCH 171600Z 1718/1818 10008KT CAVOK TX23/1813Z TN13/1803Z PROB30 TEMPO 1801/1806 5000 BR FEW010 BECMG 1806/1808 19010KT 9999 BKN020 BECMG 1812/1814 12014KT

Aug-17@
18:00 UTC

Aug-17 @ 18:00 UTC

Aug-18@
06:00 UTC

Aug-18 @ 06:00 UTC

TAF FQCH 171600Z 1718/1818 10008KT CAVOK TX23/1813Z TN13/1803Z
Wind
  • 100° at 8 KTS
Cloud Levels
  • No significant clouds

Aug-18@
01:00 UTC

Aug-18 @ 01:00 UTC

Aug-18@
06:00 UTC

Aug-18 @ 06:00 UTC

PROB30 TEMPO 1801/1806 5000 BR FEW010

Temporary - 30% Likelihood

Temporary - 30% Likelihood during this time.

Conditions
Mist
Cloud Levels
  • Few at 1,000' AGL

Aug-18@
06:00 UTC

Aug-18 @ 06:00 UTC

Aug-18@
12:00 UTC

Aug-18 @ 12:00 UTC

BECMG 1806/1808 19010KT 9999 BKN020

Becoming

Becoming Conditions expected by Sun, Aug 18, 2019 @ 08:00 UTC

Wind
  • 190° at 10 KTS
Cloud Levels
  • Broken at 2,000' AGL

Aug-18@
12:00 UTC

Aug-18 @ 12:00 UTC

Aug-18@
18:00 UTC

Aug-18 @ 18:00 UTC

BECMG 1812/1814 12014KT

Becoming

Becoming Conditions expected by Sun, Aug 18, 2019 @ 14:00 UTC

Wind
  • 120° at 14 KTS
Cloud Levels
  • Broken at 2,000' AGL